createdAt,value
2023-01-12T00:02:22.174Z,99229.28
2023-01-12T00:04:48.836Z,99217.56
2023-01-12T00:07:16.166Z,99227.03
2023-01-12T00:09:42.801Z,99215.72
2023-01-12T00:12:11.181Z,99224.13
2023-01-12T00:14:38.529Z,99231.56
2023-01-12T00:17:06.441Z,99233.19
2023-01-12T00:19:33.941Z,99229.69
2023-01-12T00:22:14.727Z,99219.41
2023-01-12T00:24:44.291Z,99215.31
2023-01-12T00:27:14.605Z,99220.22
2023-01-12T00:29:41.498Z,99221.06
2023-01-12T00:32:12.337Z,99220.66
2023-01-12T00:34:38.830Z,99211.19
2023-01-12T00:37:05.313Z,99218.97
2023-01-12T00:39:31.861Z,99207.47
2023-01-12T00:42:27.347Z,99212.84
2023-01-12T00:45:12.344Z,99206.63
2023-01-12T00:47:38.793Z,99193.25
2023-01-12T00:50:05.541Z,99195.13
2023-01-12T00:52:32.282Z,99199.25
2023-01-12T00:54:59.770Z,99207.91
2023-01-12T00:57:26.790Z,99207.47
2023-01-12T00:59:58.153Z,99201.72
2023-01-12T01:02:24.942Z,99211.78
2023-01-12T01:04:51.422Z,99208.50
2023-01-12T01:07:18.467Z,99206.44
2023-01-12T01:09:45.166Z,99209.94
2023-01-12T01:12:11.763Z,99206.44
2023-01-12T01:14:38.349Z,99196.78
2023-01-12T01:17:05.476Z,99199.63
2023-01-12T01:19:32.616Z,99202.53
2023-01-12T01:21:59.162Z,99202.94
2023-01-12T01:24:26.091Z,99197.19
2023-01-12T01:26:52.549Z,99191.44
2023-01-12T01:29:19.069Z,99207.88
2023-01-12T01:31:47.767Z,99203.13
2023-01-12T01:34:14.734Z,99208.69
2023-01-12T01:36:41.284Z,99209.50
2023-01-12T01:39:07.871Z,99218.56
2023-01-12T01:41:34.527Z,99221.84
2023-01-12T01:44:06.583Z,99222.69
2023-01-12T01:46:53.333Z,99212.41
2023-01-12T01:49:27.373Z,99197.19
2023-01-12T01:51:58.538Z,99192.66
2023-01-12T01:54:25.367Z,99198.81
2023-01-12T01:56:55.628Z,99207.66
2023-01-12T01:59:28.336Z,99209.50
2023-01-12T02:01:55.326Z,99211.38
2023-01-12T02:04:23.709Z,99213.03
2023-01-12T02:06:50.263Z,99218.16
2023-01-12T02:09:22.194Z,99221.06
2023-01-12T02:12:07.479Z,99215.69
2023-01-12T02:14:52.437Z,99205.41
2023-01-12T02:17:37.780Z,99198.00
2023-01-12T02:20:28.839Z,99203.13
2023-01-12T02:23:10.558Z,99191.41
2023-01-12T02:26:05.147Z,99188.53
2023-01-12T02:28:53.513Z,99179.06
2023-01-12T02:31:32.115Z,99178.84
2023-01-12T02:34:33.970Z,99169.81
2023-01-12T02:37:09.480Z,99154.59
2023-01-12T02:39:50.817Z,99146.13
2023-01-12T02:42:42.211Z,99148.59
2023-01-12T02:45:11.647Z,99153.53
2023-01-12T02:47:54.245Z,99151.50
2023-01-12T02:50:59.225Z,99137.53
2023-01-12T02:53:44.874Z,99157.91
2023-01-12T02:56:20.889Z,99166.53
2023-01-12T02:58:52.732Z,99172.09
2023-01-12T03:01:22.320Z,99179.91
2023-01-12T03:03:50.616Z,99166.72
2023-01-12T03:06:18.473Z,99159.72
2023-01-12T03:08:47.736Z,99164.03
2023-01-12T03:11:16.728Z,99155.59
2023-01-12T03:13:48.702Z,99150.66
2023-01-12T03:16:21.215Z,99145.31
2023-01-12T03:18:52.890Z,99136.69
2023-01-12T03:21:32.631Z,99141.63
2023-01-12T03:24:04.573Z,99151.72
2023-01-12T03:26:33.625Z,99162.56
2023-01-12T03:29:07.957Z,99158.44
2023-01-12T03:31:35.769Z,99164.63
2023-01-12T03:34:02.672Z,99179.03
2023-01-12T03:36:40.224Z,99176.94
2023-01-12T03:39:25.201Z,99164.66
2023-01-12T03:42:00.410Z,99165.06
2023-01-12T03:44:33.943Z,99166.06
2023-01-12T03:47:09.007Z,99173.50
2023-01-12T03:49:48.047Z,99177.84
2023-01-12T03:52:17.064Z,99168.78
2023-01-12T03:54:46.615Z,99166.72
2023-01-12T03:57:13.819Z,99158.09
2023-01-12T03:59:41.494Z,99158.50
2023-01-12T04:02:08.236Z,99150.25
2023-01-12T04:04:34.757Z,99149.03
2023-01-12T04:07:01.910Z,99139.97
2023-01-12T04:09:28.563Z,99144.28
2023-01-12T04:12:13.323Z,99150.03
2023-01-12T04:14:42.280Z,99140.38
2023-01-12T04:17:10.524Z,99136.50
2023-01-12T04:19:37.559Z,99129.06
2023-01-12T04:22:22.964Z,99130.53
2023-01-12T04:24:49.585Z,99117.97
2023-01-12T04:27:18.057Z,99100.53
2023-01-12T04:29:45.399Z,99103.78
2023-01-12T04:32:11.982Z,99101.34
2023-01-12T04:34:39.471Z,99109.78
2023-01-12T04:37:05.967Z,99114.72
2023-01-12T04:39:32.511Z,99107.88
2023-01-12T04:41:59.007Z,99117.16
2023-01-12T04:44:25.547Z,99115.69
2023-01-12T04:46:52.014Z,99121.41
2023-01-12T04:49:18.710Z,99121.47
2023-01-12T04:51:46.149Z,99126.00
2023-01-12T04:54:12.843Z,99129.25
2023-01-12T04:56:39.336Z,99130.06
2023-01-12T04:59:07.396Z,99132.53
2023-01-12T05:01:33.958Z,99128.03
2023-01-12T05:04:00.761Z,99135.41
2023-01-12T05:06:28.268Z,99123.47
2023-01-12T05:09:13.555Z,99129.47
2023-01-12T05:11:40.023Z,99129.88
2023-01-12T05:14:06.520Z,99128.81
2023-01-12T05:16:33.063Z,99125.91
2023-01-12T05:18:59.584Z,99129.41
2023-01-12T05:21:26.111Z,99117.72
2023-01-12T05:23:52.993Z,99123.50
2023-01-12T05:26:20.342Z,99110.13
2023-01-12T05:28:51.251Z,99116.06
2023-01-12T05:31:19.473Z,99108.66
2023-01-12T05:33:46.366Z,99112.75
2023-01-12T05:36:15.053Z,99113.38
2023-01-12T05:38:41.586Z,99104.94
2023-01-12T05:41:10.271Z,99092.84
2023-01-12T05:43:52.118Z,99109.03
2023-01-12T05:46:23.625Z,99103.13
2023-01-12T05:48:51.682Z,99093.88
2023-01-12T05:51:18.925Z,99099.22
2023-01-12T05:53:45.711Z,99087.06
2023-01-12T05:56:25.632Z,99082.56
2023-01-12T05:58:53.837Z,99082.56
2023-01-12T06:01:21.503Z,99075.19
2023-01-12T06:03:51.563Z,99070.06
2023-01-12T06:06:19.840Z,99064.72
2023-01-12T06:08:47.087Z,99065.53
2023-01-12T06:11:32.653Z,99073.78
2023-01-12T06:14:00.594Z,99077.06
2023-01-12T06:16:28.146Z,99080.78
2023-01-12T06:18:55.220Z,99089.00
2023-01-12T06:21:22.254Z,99095.16
2023-01-12T06:23:48.817Z,99094.09
2023-01-12T06:26:16.150Z,99102.94
2023-01-12T06:28:43.149Z,99098.81
2023-01-12T06:31:12.135Z,99105.81
2023-01-12T06:33:38.973Z,99103.34
2023-01-12T06:36:06.062Z,99095.91
2023-01-12T06:38:34.114Z,99093.44
2023-01-12T06:41:29.086Z,99094.06
2023-01-12T06:43:56.066Z,99088.28
2023-01-12T06:46:22.910Z,99099.59
2023-01-12T06:48:49.479Z,99088.69
2023-01-12T06:51:16.013Z,99074.91
2023-01-12T06:53:42.518Z,99067.88
2023-01-12T06:56:08.989Z,99064.94
2023-01-12T06:58:36.439Z,99050.53
2023-01-12T07:01:04.474Z,99056.47
2023-01-12T07:03:31.029Z,99054.22
2023-01-12T07:06:00.997Z,99064.09
2023-01-12T07:08:27.992Z,99060.81
2023-01-12T07:10:54.585Z,99057.53
2023-01-12T07:13:21.960Z,99063.09
2023-01-12T07:15:48.501Z,99061.63
2023-01-12T07:18:15.044Z,99058.94
2023-01-12T07:20:41.583Z,99057.31
2023-01-12T07:23:08.177Z,99063.88
2023-01-12T07:25:34.695Z,99067.81
2023-01-12T07:28:01.229Z,99064.50
2023-01-12T07:30:28.171Z,99064.94
2023-01-12T07:32:55.168Z,99068.63
2023-01-12T07:35:22.080Z,99082.00
2023-01-12T07:37:56.033Z,99079.09
2023-01-12T07:40:22.634Z,99092.28
2023-01-12T07:42:49.117Z,99092.88
2023-01-12T07:45:15.731Z,99100.75
2023-01-12T07:47:42.444Z,99107.72
2023-01-12T07:50:10.762Z,99090.41
2023-01-12T07:52:38.808Z,99082.56
2023-01-12T07:55:05.688Z,99090.78
2023-01-12T07:57:32.173Z,99100.06
2023-01-12T07:59:58.637Z,99097.78
2023-01-12T08:02:25.178Z,99100.47
2023-01-12T08:04:51.676Z,99091.63
2023-01-12T08:07:18.258Z,99078.19
2023-01-12T08:09:44.763Z,99065.16
2023-01-12T08:12:11.270Z,99056.66
2023-01-12T08:14:40.423Z,99068.00
2023-01-12T08:17:16.913Z,99064.31
2023-01-12T08:19:49.176Z,99065.31
2023-01-12T08:22:23.047Z,99072.91
2023-01-12T08:24:53.501Z,99062.19
2023-01-12T08:27:25.899Z,99065.06
2023-01-12T08:29:56.017Z,99072.44
2023-01-12T08:32:22.810Z,99082.09
2023-01-12T08:34:52.254Z,99073.19
2023-01-12T08:37:22.453Z,99078.28
2023-01-12T08:39:50.536Z,99074.28
2023-01-12T08:42:17.261Z,99068.63
2023-01-12T08:44:43.943Z,99061.38
2023-01-12T08:47:19.235Z,99051.38
2023-01-12T08:49:46.350Z,99066.59
2023-01-12T08:52:14.142Z,99070.69
2023-01-12T08:54:40.849Z,99077.66
2023-01-12T08:57:07.350Z,99077.22
2023-01-12T08:59:33.847Z,99087.34
2023-01-12T09:02:00.429Z,99089.41
2023-01-12T09:04:26.930Z,99095.59
2023-01-12T09:06:53.461Z,99085.47
2023-01-12T09:09:20.944Z,99080.03
2023-01-12T09:11:49.521Z,99084.97
2023-01-12T09:14:16.900Z,99087.00
2023-01-12T09:16:43.940Z,99089.88
2023-01-12T09:19:10.982Z,99107.47
2023-01-12T09:21:40.747Z,99100.25
2023-01-12T09:24:08.135Z,99118.38
2023-01-12T09:26:39.932Z,99109.88
2023-01-12T09:29:07.928Z,99106.75
2023-01-12T09:31:36.192Z,99110.88
2023-01-12T09:34:03.354Z,99107.34
2023-01-12T09:36:33.233Z,99097.56
2023-01-12T09:39:01.440Z,99125.41
2023-01-12T09:41:53.298Z,99098.94
2023-01-12T09:44:38.346Z,99113.69
2023-01-12T09:47:09.987Z,99108.72
2023-01-12T09:49:46.767Z,99098.09
2023-01-12T09:52:26.650Z,99097.28
2023-01-12T09:54:53.423Z,99086.47
2023-01-12T09:57:41.438Z,99093.06
2023-01-12T10:00:17.065Z,99091.81
2023-01-12T10:02:49.059Z,99099.19
2023-01-12T10:05:38.614Z,99093.34
2023-01-12T10:08:09.701Z,99094.13
2023-01-12T10:10:36.206Z,99095.28
2023-01-12T10:13:07.164Z,99090.81
2023-01-12T10:15:38.524Z,99096.66
2023-01-12T10:18:14.180Z,99087.31
2023-01-12T10:20:43.471Z,99095.75
2023-01-12T10:23:09.973Z,99097.78
2023-01-12T10:25:46.368Z,99080.81
2023-01-12T10:28:22.970Z,99072.19
2023-01-12T10:30:49.696Z,99079.19
2023-01-12T10:33:21.587Z,99075.44
2023-01-12T10:36:00.857Z,99063.41
2023-01-12T10:38:38.342Z,99072.69
2023-01-12T10:41:18.516Z,99063.19
2023-01-12T10:44:05.222Z,99072.44
2023-01-12T10:46:33.630Z,99066.16
2023-01-12T10:49:21.247Z,99050.03
2023-01-12T10:51:59.390Z,99054.59
2023-01-12T10:54:34.427Z,99034.97
2023-01-12T10:57:17.861Z,99042.56
2023-01-12T10:59:55.624Z,99039.19
2023-01-12T11:02:24.218Z,99035.22
2023-01-12T11:04:52.492Z,99027.75
2023-01-12T11:07:21.892Z,99035.13
2023-01-12T11:09:49.440Z,99028.59
2023-01-12T11:12:20.476Z,99029.16
2023-01-12T11:15:04.704Z,99016.09
2023-01-12T11:17:49.949Z,99010.38
2023-01-12T11:20:43.750Z,99007.31
2023-01-12T11:23:28.163Z,99011.31
2023-01-12T11:25:56.282Z,99014.56
2023-01-12T11:28:38.246Z,99003.47
2023-01-12T11:31:25.849Z,98996.22
2023-01-12T11:34:01.314Z,98999.63
2023-01-12T11:36:32.918Z,99003.47
2023-01-12T11:39:06.868Z,99005.72
2023-01-12T11:42:17.257Z,99012.16
2023-01-12T11:45:15.948Z,99014.59
2023-01-12T11:47:54.829Z,99013.09
2023-01-12T11:50:27.727Z,99007.34
2023-01-12T11:52:56.047Z,98997.88
2023-01-12T11:56:08.946Z,98987.50
2023-01-12T11:58:58.405Z,98991.44
2023-01-12T12:01:40.894Z,98992.88
2023-01-12T12:04:31.929Z,98984.66
2023-01-12T12:07:21.633Z,98995.41
2023-01-12T12:10:17.171Z,98983.13
2023-01-12T12:13:18.751Z,98975.31
2023-01-12T12:16:04.394Z,98973.78
2023-01-12T12:18:43.071Z,98961.63
2023-01-12T12:21:35.364Z,98968.53
2023-01-12T12:24:23.286Z,98955.69
2023-01-12T12:27:15.044Z,98953.34
2023-01-12T12:30:00.329Z,98945.50
2023-01-12T12:32:55.845Z,98934.75
2023-01-12T12:36:16.696Z,98927.88
2023-01-12T12:39:20.051Z,98936.28
2023-01-12T12:42:44.176Z,98925.31
2023-01-12T12:45:25.526Z,98929.16
2023-01-12T12:48:20.357Z,98938.03
2023-01-12T12:50:46.810Z,98935.34
2023-01-12T12:53:22.966Z,98930.78
2023-01-12T12:55:51.762Z,98935.34
2023-01-12T12:58:21.354Z,98928.56
2023-01-12T13:00:50.550Z,98922.50
2023-01-12T13:03:42.056Z,98928.34
2023-01-12T13:06:19.905Z,98923.53
2023-01-12T13:08:48.027Z,98921.91
2023-01-12T13:11:14.593Z,98917.00
2023-01-12T13:14:01.537Z,98913.63
2023-01-12T13:16:29.432Z,98917.34
2023-01-12T13:18:55.857Z,98915.00
2023-01-12T13:21:31.672Z,98906.94
2023-01-12T13:24:41.215Z,98905.44
2023-01-12T13:27:45.054Z,98900.38
2023-01-12T13:30:26.797Z,98896.41
2023-01-12T13:32:53.287Z,98887.06
2023-01-12T13:35:46.589Z,98887.75
2023-01-12T13:38:32.163Z,98887.75
2023-01-12T13:41:39.682Z,98889.50
2023-01-12T13:44:10.308Z,98875.13
2023-01-12T13:46:44.526Z,98891.50
2023-01-12T13:49:26.374Z,98882.84
2023-01-12T13:52:18.742Z,98879.69
2023-01-12T13:54:51.624Z,98865.66
2023-01-12T13:57:23.420Z,98865.22
2023-01-12T14:00:22.046Z,98858.78
2023-01-12T14:02:48.718Z,98857.72
2023-01-12T14:05:24.658Z,98863.69
2023-01-12T14:08:00.053Z,98857.09
2023-01-12T14:10:39.522Z,98842.03
2023-01-12T14:13:29.146Z,98848.81
2023-01-12T14:16:19.616Z,98852.66
2023-01-12T14:18:50.481Z,98855.69
2023-01-12T14:21:37.820Z,98858.88
2023-01-12T14:24:16.462Z,98847.41
2023-01-12T14:26:43.197Z,98858.75
2023-01-12T14:29:11.576Z,98858.28
2023-01-12T14:31:43.548Z,98853.72
2023-01-12T14:34:34.964Z,98855.69
2023-01-12T14:37:04.139Z,98854.03
2023-01-12T14:39:40.945Z,98851.13
2023-01-12T14:42:35.495Z,98857.00
2023-01-12T14:45:21.376Z,98857.06
2023-01-12T14:47:47.953Z,98861.50
2023-01-12T14:50:16.069Z,98863.16
2023-01-12T14:52:45.479Z,98864.44
2023-01-12T14:55:33.456Z,98859.66
2023-01-12T14:58:04.965Z,98853.91
2023-01-12T15:00:34.477Z,98859.06
2023-01-12T15:03:05.010Z,98864.66
2023-01-12T15:05:34.227Z,98853.22
2023-01-12T15:08:22.108Z,98853.81
2023-01-12T15:11:06.961Z,98854.84
2023-01-12T15:13:35.328Z,98851.25
2023-01-12T15:16:22.070Z,98854.19
2023-01-12T15:19:07.869Z,98842.84
2023-01-12T15:21:54.913Z,98850.22
2023-01-12T15:24:45.517Z,98845.31
2023-01-12T15:27:14.425Z,98846.13
2023-01-12T15:29:41.004Z,98837.13
2023-01-12T15:32:16.778Z,98846.28
2023-01-12T15:34:43.317Z,98843.31
2023-01-12T15:37:15.892Z,98836.31
2023-01-12T15:39:42.626Z,98830.63
2023-01-12T15:42:16.624Z,98818.59
2023-01-12T15:44:44.907Z,98820.00
2023-01-12T15:47:12.884Z,98812.63
2023-01-12T15:49:48.481Z,98821.75
2023-01-12T15:52:23.979Z,98832.97
2023-01-12T15:54:51.189Z,98829.91
2023-01-12T15:57:18.450Z,98841.97
2023-01-12T15:59:45.004Z,98834.38
2023-01-12T16:02:27.480Z,98832.50
2023-01-12T16:04:54.052Z,98829.81
2023-01-12T16:07:20.623Z,98826.19
2023-01-12T16:09:47.781Z,98829.94
2023-01-12T16:12:15.331Z,98820.34
2023-01-12T16:14:41.889Z,98826.78
2023-01-12T16:17:08.712Z,98827.34
2023-01-12T16:19:41.197Z,98819.19
2023-01-12T16:22:21.663Z,98825.72
2023-01-12T16:24:49.441Z,98826.19
2023-01-12T16:27:17.593Z,98823.84
2023-01-12T16:29:52.490Z,98828.16
2023-01-12T16:32:25.780Z,98828.75
2023-01-12T16:34:52.934Z,98829.09
2023-01-12T16:37:26.624Z,98829.69
2023-01-12T16:39:53.924Z,98829.69
2023-01-12T16:42:20.394Z,98815.56
2023-01-12T16:44:49.326Z,98817.78
2023-01-12T16:47:19.497Z,98822.91
2023-01-12T16:49:50.835Z,98816.84
2023-01-12T16:52:19.826Z,98827.47
2023-01-12T16:54:46.430Z,98823.63
2023-01-12T16:57:15.410Z,98821.63
2023-01-12T16:59:42.715Z,98822.91
2023-01-12T17:02:18.782Z,98823.84
2023-01-12T17:04:47.968Z,98826.53
2023-01-12T17:07:14.616Z,98812.03
2023-01-12T17:09:42.245Z,98813.56
2023-01-12T17:12:09.422Z,98811.22
2023-01-12T17:14:36.291Z,98805.75
2023-01-12T17:17:06.646Z,98802.69
2023-01-12T17:19:34.879Z,98800.84
2023-01-12T17:22:02.274Z,98799.91
2023-01-12T17:24:30.578Z,98791.88
2023-01-12T17:26:57.708Z,98786.97
2023-01-12T17:29:25.882Z,98785.44
2023-01-12T17:31:53.851Z,98776.22
2023-01-12T17:34:21.893Z,98776.31
2023-01-12T17:36:48.850Z,98776.09
2023-01-12T17:39:15.434Z,98786.25
2023-01-12T17:42:00.506Z,98781.69
2023-01-12T17:44:27.182Z,98799.78
2023-01-12T17:46:53.652Z,98802.47
2023-01-12T17:49:20.369Z,98795.25
2023-01-12T17:51:47.155Z,98793.97
2023-01-12T17:54:15.228Z,98798.97
2023-01-12T17:56:41.931Z,98800.59
2023-01-12T17:59:14.606Z,98794.44
2023-01-12T18:01:42.580Z,98790.34
2023-01-12T18:04:09.366Z,98784.50
2023-01-12T18:06:35.869Z,98786.97
2023-01-12T18:09:02.849Z,98776.22
2023-01-12T18:11:31.272Z,98776.69
2023-01-12T18:13:58.926Z,98776.22
2023-01-12T18:16:26.115Z,98775.75
2023-01-12T18:18:53.088Z,98768.63
2023-01-12T18:21:22.840Z,98769.31
2023-01-12T18:23:50.510Z,98761.25
2023-01-12T18:26:23.814Z,98768.97
2023-01-12T18:28:50.482Z,98758.56
2023-01-12T18:31:20.103Z,98762.19
2023-01-12T18:33:51.591Z,98750.03
2023-01-12T18:36:21.648Z,98759.50
2023-01-12T18:38:51.650Z,98753.31
2023-01-12T18:41:38.600Z,98760.44
2023-01-12T18:44:06.410Z,98760.19
2023-01-12T18:46:53.546Z,98767.53
2023-01-12T18:49:22.369Z,98761.81
2023-01-12T18:52:07.664Z,98767.06
2023-01-12T18:54:36.601Z,98765.91
2023-01-12T18:57:03.213Z,98767.78
2023-01-12T18:59:30.075Z,98760.19
2023-01-12T19:01:56.687Z,98764.59
2023-01-12T19:04:37.532Z,98756.31
2023-01-12T19:07:04.292Z,98745.69
2023-01-12T19:09:37.364Z,98743.94
2023-01-12T19:12:05.989Z,98738.00
2023-01-12T19:14:51.682Z,98732.50
2023-01-12T19:17:27.310Z,98734.13
2023-01-12T19:19:54.474Z,98725.97
2023-01-12T19:22:39.724Z,98739.97
2023-01-12T19:25:25.004Z,98727.25
2023-01-12T19:28:10.004Z,98729.59
2023-01-12T19:30:39.299Z,98722.94
2023-01-12T19:33:14.389Z,98730.50
2023-01-12T19:35:42.633Z,98721.38
2023-01-12T19:38:09.694Z,98720.31
2023-01-12T19:40:44.932Z,98716.81
2023-01-12T19:43:20.519Z,98716.22
2023-01-12T19:45:49.323Z,98715.66
2023-01-12T19:48:17.731Z,98718.41
2023-01-12T19:50:44.977Z,98722.66
2023-01-12T19:53:14.518Z,98707.34
2023-01-12T19:55:42.061Z,98704.66
2023-01-12T19:58:09.339Z,98699.28
2023-01-12T20:00:43.373Z,98682.09
2023-01-12T20:03:10.979Z,98686.72
2023-01-12T20:05:39.349Z,98686.38
2023-01-12T20:08:07.348Z,98683.59
2023-01-12T20:10:34.681Z,98693.28
2023-01-12T20:13:01.329Z,98688.16
2023-01-12T20:15:27.838Z,98684.41
2023-01-12T20:17:56.433Z,98682.53
2023-01-12T20:20:23.735Z,98685.94
2023-01-12T20:22:50.649Z,98678.59
2023-01-12T20:25:18.059Z,98679.66
2023-01-12T20:27:46.375Z,98689.91
2023-01-12T20:30:16.413Z,98685.13
2023-01-12T20:32:45.727Z,98683.84
2023-01-12T20:35:14.924Z,98684.53
2023-01-12T20:37:41.892Z,98675.91
2023-01-12T20:40:10.433Z,98683.72
2023-01-12T20:42:37.068Z,98678.03
2023-01-12T20:45:05.040Z,98680.31
2023-01-12T20:47:32.216Z,98670.41
2023-01-12T20:49:58.727Z,98666.16
2023-01-12T20:52:25.433Z,98664.78
2023-01-12T20:54:52.659Z,98655.66
2023-01-12T20:57:19.583Z,98659.97
2023-01-12T20:59:48.438Z,98649.72
2023-01-12T21:02:23.912Z,98651.47
2023-01-12T21:04:50.871Z,98652.03
2023-01-12T21:07:21.633Z,98662.22
2023-01-12T21:09:48.305Z,98658.97
2023-01-12T21:12:14.991Z,98659.53
2023-01-12T21:14:41.542Z,98658.97
2023-01-12T21:17:08.232Z,98660.25
2023-01-12T21:19:34.989Z,98646.31
2023-01-12T21:22:01.735Z,98634.66
2023-01-12T21:24:28.544Z,98642.13
2023-01-12T21:26:56.001Z,98646.91
2023-01-12T21:29:23.670Z,98646.91
2023-01-12T21:31:50.266Z,98642.03
2023-01-12T21:34:16.864Z,98649.28
2023-01-12T21:36:43.683Z,98646.25
2023-01-12T21:39:10.204Z,98646.78
2023-01-12T21:41:56.651Z,98650.97
2023-01-12T21:44:23.187Z,98651.44
2023-01-12T21:46:49.630Z,98644.41
2023-01-12T21:49:16.634Z,98638.00
2023-01-12T21:51:43.101Z,98633.09
2023-01-12T21:54:09.641Z,98623.97
2023-01-12T21:56:36.195Z,98618.59
2023-01-12T21:59:02.712Z,98614.50
2023-01-12T22:01:29.297Z,98617.47
2023-01-12T22:03:57.254Z,98609.38
2023-01-12T22:06:23.963Z,98599.44
2023-01-12T22:08:50.404Z,98598.06
2023-01-12T22:11:18.028Z,98614.66
2023-01-12T22:13:44.926Z,98608.81
2023-01-12T22:16:14.537Z,98615.81
2023-01-12T22:18:44.881Z,98617.47
2023-01-12T22:21:12.740Z,98612.56
2023-01-12T22:23:39.791Z,98621.44
2023-01-12T22:26:09.391Z,98617.47
2023-01-12T22:28:37.574Z,98612.25
2023-01-12T22:31:19.096Z,98613.81
2023-01-12T22:33:54.876Z,98617.53
2023-01-12T22:36:21.713Z,98610.63
2023-01-12T22:38:48.159Z,98613.22
2023-01-12T22:41:14.660Z,98620.94
2023-01-12T22:43:41.139Z,98624.13
2023-01-12T22:46:22.193Z,98615.16
2023-01-12T22:48:51.050Z,98610.34
2023-01-12T22:51:18.647Z,98611.97
2023-01-12T22:53:45.123Z,98609.03
2023-01-12T22:56:12.139Z,98603.09
2023-01-12T22:58:39.724Z,98601.81
2023-01-12T23:01:09.042Z,98598.53
2023-01-12T23:03:37.231Z,98589.06
2023-01-12T23:06:04.722Z,98576.56
2023-01-12T23:08:31.259Z,98569.06
2023-01-12T23:11:08.707Z,98559.13
2023-01-12T23:13:35.428Z,98556.59
2023-01-12T23:16:07.234Z,98552.19
2023-01-12T23:18:35.475Z,98559.66
2023-01-12T23:21:03.389Z,98560.75
2023-01-12T23:23:31.058Z,98548.00
2023-01-12T23:26:02.994Z,98546.63
2023-01-12T23:28:29.600Z,98553.88
2023-01-12T23:31:05.853Z,98553.88
2023-01-12T23:33:32.941Z,98550.94
2023-01-12T23:36:05.499Z,98557.13
2023-01-12T23:38:32.154Z,98550.38
2023-01-12T23:40:59.198Z,98555.16
2023-01-12T23:43:25.977Z,98543.81
2023-01-12T23:45:52.584Z,98543.00
2023-01-12T23:48:19.226Z,98535.22
2023-01-12T23:50:45.742Z,98520.13
2023-01-12T23:53:12.254Z,98534.31
2023-01-12T23:55:39.577Z,98530.53
2023-01-12T23:58:06.561Z,98532.81
